East Kingston, New Hampshire
Current Conditions -  °F | °C
As of 1:23 AM on Friday 28 Nov 2014 (Local Time) from KPSM Reporting Station
Light Snow Light Snow  
Wind Chill: 20°   Ceiling: 2500
Heat Index: 28°   Visibility: 1.2mi
Dew Point: 23°   Wind: 8mph
Humidity: 80%   Direction: 20°NNE
Pressure: 29.99"   Gusts: NA
Location:  42.93°N, 71.02°W
Report Text: KPSM 280623Z 02007KT 1 1/4SM -SN FEW010 OVC025 M02/M05 A2999 RMK AO2A
Loading
Personal Weather Stations






























Interactive Weather Map New forecast layout! Learn more

10-Day Weather Forecast

Advertisements
Track Severe Weather on mobile